createdAt,value
2023-02-19T00:01:54.516Z,4.77
2023-02-19T00:04:23.767Z,4.93
2023-02-19T00:06:52.391Z,4.00
2023-02-19T00:09:21.608Z,3.73
2023-02-19T00:11:50.202Z,4.13
2023-02-19T00:14:22.141Z,3.27
2023-02-19T00:16:50.869Z,3.90
2023-02-19T00:19:20.981Z,4.47
2023-02-19T00:21:51.609Z,4.90
2023-02-19T00:24:20.462Z,4.50
2023-02-19T00:26:49.085Z,4.17
2023-02-19T00:29:21.013Z,5.53
2023-02-19T00:31:49.506Z,3.73
2023-02-19T00:34:18.030Z,4.47
2023-02-19T00:36:46.428Z,3.87
2023-02-19T00:39:18.334Z,4.77
2023-02-19T00:41:47.535Z,3.53
2023-02-19T00:44:16.721Z,5.50
2023-02-19T00:46:48.236Z,6.10
2023-02-19T00:49:19.405Z,4.73
2023-02-19T00:51:48.410Z,3.97
2023-02-19T00:54:17.441Z,3.93
2023-02-19T00:56:46.213Z,4.27
2023-02-19T00:59:14.669Z,3.30
2023-02-19T01:01:44.453Z,3.43
2023-02-19T01:04:16.394Z,4.20
2023-02-19T01:06:44.929Z,5.00
2023-02-19T01:09:13.671Z,3.67
2023-02-19T01:11:42.097Z,3.17
2023-02-19T01:14:10.716Z,4.47
2023-02-19T01:16:39.464Z,3.80
2023-02-19T01:19:07.898Z,4.27
2023-02-19T01:21:37.729Z,2.83
2023-02-19T01:24:06.455Z,3.50
2023-02-19T01:26:34.931Z,3.63
2023-02-19T01:29:03.703Z,3.23
2023-02-19T01:31:32.396Z,2.57
2023-02-19T01:34:02.735Z,3.40
2023-02-19T01:36:33.984Z,3.17
2023-02-19T01:39:05.204Z,2.43
2023-02-19T01:41:37.959Z,2.30
2023-02-19T01:44:08.928Z,2.30
2023-02-19T01:46:38.428Z,2.30
2023-02-19T01:49:10.849Z,1.90
2023-02-19T01:51:41.113Z,2.10
2023-02-19T01:54:12.230Z,2.03
2023-02-19T01:56:42.707Z,2.00
2023-02-19T01:59:11.232Z,1.70
2023-02-19T02:01:40.507Z,1.63
2023-02-19T02:04:10.965Z,1.77
2023-02-19T02:06:44.515Z,1.60
2023-02-19T02:09:32.046Z,1.83
2023-02-19T02:12:00.456Z,2.40
2023-02-19T02:14:32.123Z,2.47
2023-02-19T02:17:08.454Z,2.70
2023-02-19T02:19:52.892Z,2.60
2023-02-19T02:22:23.944Z,2.20
2023-02-19T02:25:17.635Z,2.40
2023-02-19T02:27:55.194Z,1.57
2023-02-19T02:30:41.787Z,1.63
2023-02-19T02:33:19.178Z,2.27
2023-02-19T02:35:49.577Z,4.43
2023-02-19T02:38:19.905Z,3.13
2023-02-19T02:40:48.708Z,3.23
2023-02-19T02:43:17.137Z,3.70
2023-02-19T02:45:47.005Z,5.33
2023-02-19T02:48:29.948Z,3.87
2023-02-19T02:51:01.666Z,4.87
2023-02-19T02:53:53.462Z,5.27
2023-02-19T02:56:22.518Z,3.50
2023-02-19T02:58:51.696Z,3.13
2023-02-19T03:01:42.590Z,2.33
2023-02-19T03:04:15.473Z,3.53
2023-02-19T03:06:44.212Z,2.27
2023-02-19T03:09:14.724Z,2.50
2023-02-19T03:12:04.265Z,2.50
2023-02-19T03:14:53.540Z,2.50
2023-02-19T03:17:48.331Z,2.37
2023-02-19T03:20:17.658Z,2.97
2023-02-19T03:22:47.060Z,3.13
2023-02-19T03:25:37.037Z,2.97
2023-02-19T03:28:08.207Z,2.60
2023-02-19T03:30:39.035Z,1.90
2023-02-19T03:33:11.378Z,2.20
2023-02-19T03:35:42.504Z,1.70
2023-02-19T03:38:13.459Z,1.90
2023-02-19T03:41:01.500Z,2.00
2023-02-19T03:43:38.577Z,2.10
2023-02-19T03:46:10.770Z,1.60
2023-02-19T03:48:46.781Z,1.53
2023-02-19T03:51:32.132Z,2.13
2023-02-19T03:54:06.456Z,2.50
2023-02-19T03:56:39.151Z,3.10
2023-02-19T03:59:12.041Z,3.47
2023-02-19T04:01:44.422Z,4.13
2023-02-19T04:04:19.613Z,6.73
2023-02-19T04:06:52.751Z,6.67
2023-02-19T04:09:22.511Z,7.67
2023-02-19T04:11:52.290Z,8.60
2023-02-19T04:14:24.007Z,9.20
2023-02-19T04:16:56.513Z,8.43
2023-02-19T04:19:27.861Z,8.60
2023-02-19T04:21:58.398Z,8.23
2023-02-19T04:24:31.183Z,7.77
2023-02-19T04:26:59.595Z,8.80
2023-02-19T04:29:28.060Z,7.93
2023-02-19T04:31:56.560Z,10.53
2023-02-19T04:34:26.462Z,12.57
2023-02-19T04:36:54.891Z,10.37
2023-02-19T04:39:23.328Z,10.87
2023-02-19T04:41:51.788Z,9.03
2023-02-19T04:44:20.477Z,8.77
2023-02-19T04:46:49.042Z,6.13
2023-02-19T04:49:17.547Z,5.17
2023-02-19T04:51:47.359Z,6.27
2023-02-19T04:54:15.854Z,3.57
2023-02-19T04:56:44.386Z,4.60
2023-02-19T04:59:12.813Z,4.13
2023-02-19T05:01:41.369Z,2.77
2023-02-19T05:04:09.906Z,1.97
2023-02-19T05:06:38.483Z,2.70
2023-02-19T05:09:09.116Z,4.13
2023-02-19T05:11:37.590Z,3.53
2023-02-19T05:14:06.025Z,3.43
2023-02-19T05:16:34.445Z,3.67
2023-02-19T05:19:02.893Z,3.83
2023-02-19T05:21:31.277Z,4.70
2023-02-19T05:23:59.708Z,4.93
2023-02-19T05:26:31.207Z,3.67
2023-02-19T05:29:00.518Z,2.63
2023-02-19T05:31:29.481Z,3.67
2023-02-19T05:33:58.215Z,3.53
2023-02-19T05:36:26.861Z,3.43
2023-02-19T05:38:56.674Z,5.47
2023-02-19T05:41:27.619Z,5.13
2023-02-19T05:43:58.588Z,5.40
2023-02-19T05:46:29.280Z,5.10
2023-02-19T05:48:58.778Z,6.07
2023-02-19T05:51:27.937Z,5.97
2023-02-19T05:53:57.810Z,6.33
2023-02-19T05:56:31.476Z,7.27
2023-02-19T05:59:03.885Z,7.40
2023-02-19T06:01:32.648Z,7.27
2023-02-19T06:04:01.447Z,6.87
2023-02-19T06:06:29.895Z,7.50
2023-02-19T06:08:58.348Z,7.90
2023-02-19T06:11:26.986Z,6.50
2023-02-19T06:13:55.451Z,6.83
2023-02-19T06:16:25.382Z,6.50
2023-02-19T06:18:54.073Z,5.00
2023-02-19T06:21:22.581Z,5.30
2023-02-19T06:23:51.122Z,4.33
2023-02-19T06:26:21.324Z,5.03
2023-02-19T06:28:51.881Z,13.13
2023-02-19T06:31:21.905Z,10.93
2023-02-19T06:33:51.911Z,6.53
2023-02-19T06:36:21.670Z,5.97
2023-02-19T06:38:50.436Z,4.97
2023-02-19T06:41:19.326Z,4.20
2023-02-19T06:43:47.825Z,4.60
2023-02-19T06:46:18.479Z,5.53
2023-02-19T06:48:47.032Z,6.13
2023-02-19T06:51:19.542Z,5.97
2023-02-19T06:53:47.982Z,4.97
2023-02-19T06:56:27.475Z,5.27
2023-02-19T06:58:57.191Z,7.57
2023-02-19T07:01:25.838Z,5.77
2023-02-19T07:03:54.577Z,5.97
2023-02-19T07:06:25.718Z,7.57
2023-02-19T07:08:55.324Z,6.80
2023-02-19T07:11:28.333Z,8.80
2023-02-19T07:13:57.053Z,7.50
2023-02-19T07:16:25.876Z,7.43
2023-02-19T07:18:54.352Z,6.33
2023-02-19T07:21:24.168Z,8.90
2023-02-19T07:23:53.097Z,10.10
2023-02-19T07:26:22.307Z,11.37
2023-02-19T07:28:51.945Z,6.50
2023-02-19T07:31:22.539Z,5.50
2023-02-19T07:33:51.572Z,6.60
2023-02-19T07:36:21.429Z,4.97
2023-02-19T07:38:55.287Z,7.03
2023-02-19T07:41:24.290Z,6.03
2023-02-19T07:43:52.769Z,6.70
2023-02-19T07:46:21.488Z,9.77
2023-02-19T07:48:50.001Z,7.00
2023-02-19T07:51:20.006Z,7.67
2023-02-19T07:53:50.235Z,7.93
2023-02-19T07:56:21.037Z,29.83
2023-02-19T07:58:49.597Z,14.53
2023-02-19T08:01:19.916Z,10.23
2023-02-19T08:03:50.092Z,8.97
2023-02-19T08:06:18.843Z,8.03
2023-02-19T08:08:47.257Z,8.27
2023-02-19T08:11:33.517Z,9.23
2023-02-19T08:14:03.360Z,8.90
2023-02-19T08:16:42.658Z,9.37
2023-02-19T08:19:11.817Z,10.07
2023-02-19T08:21:40.772Z,13.63
2023-02-19T08:24:09.330Z,15.00
2023-02-19T08:26:38.065Z,15.10
2023-02-19T08:29:08.061Z,11.07
2023-02-19T08:31:36.794Z,10.07
2023-02-19T08:34:05.276Z,11.10
2023-02-19T08:36:33.670Z,21.00
2023-02-19T08:39:02.068Z,22.50
2023-02-19T08:41:30.512Z,16.37
2023-02-19T08:43:58.929Z,26.90
2023-02-19T08:46:28.980Z,18.60
2023-02-19T08:48:57.389Z,14.17
2023-02-19T08:51:25.859Z,13.50
2023-02-19T08:53:54.326Z,18.20
2023-02-19T08:56:22.862Z,20.17
2023-02-19T08:58:51.349Z,25.10
2023-02-19T09:01:20.082Z,22.77
2023-02-19T09:03:49.964Z,27.43
2023-02-19T09:06:20.438Z,20.50
2023-02-19T09:08:48.987Z,25.90
2023-02-19T09:11:17.856Z,18.83
2023-02-19T09:13:46.373Z,20.13
2023-02-19T09:16:14.772Z,17.77
2023-02-19T09:18:43.226Z,12.87
2023-02-19T09:21:13.313Z,9.33
2023-02-19T09:23:41.986Z,9.17
2023-02-19T09:26:11.768Z,11.27
2023-02-19T09:28:42.068Z,9.87
2023-02-19T09:31:13.117Z,10.87
2023-02-19T09:33:44.332Z,9.57
2023-02-19T09:36:14.877Z,8.53
2023-02-19T09:38:45.092Z,9.57
2023-02-19T09:41:18.730Z,8.63
2023-02-19T09:43:47.805Z,10.90
2023-02-19T09:46:25.456Z,14.43
2023-02-19T09:48:55.031Z,12.83
2023-02-19T09:51:26.364Z,14.90
2023-02-19T09:53:55.470Z,10.00
2023-02-19T09:56:24.040Z,7.50
2023-02-19T09:58:56.495Z,8.97
2023-02-19T10:01:29.368Z,8.53
2023-02-19T10:03:57.813Z,11.23
2023-02-19T10:06:29.914Z,14.03
2023-02-19T10:09:07.041Z,7.63
2023-02-19T10:11:35.544Z,2.30
2023-02-19T10:14:09.371Z,1.13
2023-02-19T10:16:47.220Z,2.33
2023-02-19T10:19:16.717Z,4.47
2023-02-19T10:21:46.821Z,1.73
2023-02-19T10:24:20.217Z,2.53
2023-02-19T10:26:48.830Z,1.00
2023-02-19T10:29:17.264Z,0.77
2023-02-19T10:31:45.779Z,2.20
2023-02-19T10:34:23.128Z,0.37
2023-02-19T10:36:54.225Z,0.80
2023-02-19T10:39:37.200Z,2.57
2023-02-19T10:42:05.990Z,3.40
2023-02-19T10:44:39.757Z,2.20
2023-02-19T10:47:08.270Z,1.97
2023-02-19T10:49:39.164Z,2.00
2023-02-19T10:52:31.712Z,0.60
2023-02-19T10:56:01.596Z,0.80
2023-02-19T10:58:34.350Z,2.73
2023-02-19T11:01:18.705Z,1.13
2023-02-19T11:03:48.092Z,0.70
2023-02-19T11:06:18.168Z,1.13
2023-02-19T11:08:58.583Z,0.50
2023-02-19T11:11:33.416Z,0.87
2023-02-19T11:14:05.188Z,0.20
2023-02-19T11:16:48.618Z,3.37
2023-02-19T11:19:32.560Z,1.87
2023-02-19T11:22:02.333Z,0.40
2023-02-19T11:24:35.247Z,0.67
2023-02-19T11:27:05.992Z,0.80
2023-02-19T11:29:35.686Z,1.27
2023-02-19T11:32:27.397Z,1.17
2023-02-19T11:35:22.508Z,0.80
2023-02-19T11:37:59.156Z,0.40
2023-02-19T11:40:40.383Z,1.10
2023-02-19T11:43:18.541Z,1.53
2023-02-19T11:45:49.519Z,1.30
2023-02-19T11:48:33.627Z,2.57
2023-02-19T11:51:17.880Z,1.10
2023-02-19T11:53:49.932Z,1.50
2023-02-19T11:56:20.829Z,1.70
2023-02-19T11:59:00.653Z,0.30
2023-02-19T12:01:46.338Z,0.30
2023-02-19T12:04:51.131Z,1.07
2023-02-19T12:07:30.546Z,0.60
2023-02-19T12:10:05.368Z,0.57
2023-02-19T12:12:46.711Z,0.40
2023-02-19T12:15:59.931Z,0.30
2023-02-19T12:18:58.889Z,0.30
2023-02-19T12:21:50.811Z,0.97
2023-02-19T12:24:38.995Z,1.00
2023-02-19T12:27:16.755Z,1.23
2023-02-19T12:29:55.514Z,0.30
2023-02-19T12:32:44.217Z,0.30
2023-02-19T12:35:35.736Z,0.47
2023-02-19T12:38:15.089Z,2.20
2023-02-19T12:40:51.556Z,0.90
2023-02-19T12:43:21.494Z,0.70
2023-02-19T12:45:54.266Z,1.50
2023-02-19T12:48:29.268Z,1.27
2023-02-19T12:51:02.369Z,1.67
2023-02-19T12:53:40.928Z,1.07
2023-02-19T12:56:14.449Z,0.43
2023-02-19T12:58:46.505Z,1.20
2023-02-19T13:01:21.083Z,0.83
2023-02-19T13:03:53.787Z,0.57
2023-02-19T13:06:32.429Z,0.67
2023-02-19T13:09:06.654Z,4.47
2023-02-19T13:11:38.038Z,1.27
2023-02-19T13:14:12.582Z,1.60
2023-02-19T13:16:45.592Z,3.90
2023-02-19T13:19:15.342Z,3.47
2023-02-19T13:22:03.140Z,1.70
2023-02-19T13:24:34.145Z,1.27
2023-02-19T13:27:28.303Z,1.80
2023-02-19T13:30:16.765Z,1.83
2023-02-19T13:32:56.273Z,1.27
2023-02-19T13:35:51.506Z,0.37
2023-02-19T13:38:20.167Z,0.63
2023-02-19T13:40:55.807Z,1.10
2023-02-19T13:43:26.631Z,0.70
2023-02-19T13:45:58.112Z,2.20
2023-02-19T13:48:31.476Z,0.40
2023-02-19T13:51:39.853Z,0.83
2023-02-19T13:54:29.757Z,0.20
2023-02-19T13:57:20.717Z,0.60
2023-02-19T13:59:49.950Z,0.90
2023-02-19T14:02:36.236Z,0.70
2023-02-19T14:05:08.335Z,1.33
2023-02-19T14:07:54.623Z,0.30
2023-02-19T14:10:57.742Z,0.50
2023-02-19T14:14:06.406Z,1.30
2023-02-19T14:17:05.677Z,0.60
2023-02-19T14:19:52.693Z,0.20
2023-02-19T14:23:06.970Z,0.50
2023-02-19T14:25:41.675Z,2.63
2023-02-19T14:28:29.902Z,1.43
2023-02-19T14:31:01.015Z,0.13
2023-02-19T14:33:35.715Z,1.43
2023-02-19T14:36:15.360Z,1.47
2023-02-19T14:38:47.352Z,0.33
2023-02-19T14:41:18.320Z,1.30
2023-02-19T14:43:48.020Z,0.50
2023-02-19T14:46:21.935Z,0.23
2023-02-19T14:48:51.301Z,0.23
2023-02-19T14:51:27.568Z,0.20
2023-02-19T14:53:57.570Z,0.63
2023-02-19T14:56:29.024Z,1.23
2023-02-19T14:59:23.003Z,0.20
2023-02-19T15:02:00.047Z,0.20
2023-02-19T15:04:31.332Z,0.10
2023-02-19T15:07:03.651Z,0.73
2023-02-19T15:09:34.374Z,1.00
2023-02-19T15:12:04.779Z,0.40
2023-02-19T15:14:33.512Z,0.30
2023-02-19T15:17:05.731Z,0.10
2023-02-19T15:19:36.190Z,1.67
2023-02-19T15:22:05.800Z,2.60
2023-02-19T15:24:34.225Z,1.20
2023-02-19T15:27:04.857Z,1.97
2023-02-19T15:29:33.344Z,8.80
2023-02-19T15:32:02.566Z,8.23
2023-02-19T15:34:32.940Z,3.80
2023-02-19T15:37:03.352Z,1.80
2023-02-19T15:39:35.748Z,6.47
2023-02-19T15:42:07.307Z,1.10
2023-02-19T15:44:44.092Z,1.80
2023-02-19T15:47:19.524Z,0.83
2023-02-19T15:49:55.168Z,0.63
2023-02-19T15:52:30.454Z,1.70
2023-02-19T15:55:03.392Z,0.67
2023-02-19T15:57:36.824Z,3.60
2023-02-19T16:00:12.361Z,1.10
2023-02-19T16:02:41.620Z,0.30
2023-02-19T16:05:15.987Z,1.10
2023-02-19T16:07:44.531Z,4.43
2023-02-19T16:10:23.679Z,2.33
2023-02-19T16:13:01.547Z,1.60
2023-02-19T16:15:31.508Z,1.50
2023-02-19T16:18:00.625Z,0.40
2023-02-19T16:20:30.284Z,0.47
2023-02-19T16:23:01.797Z,0.27
2023-02-19T16:25:34.030Z,0.93
2023-02-19T16:28:12.174Z,0.73
2023-02-19T16:30:40.650Z,3.50
2023-02-19T16:33:36.320Z,0.77
2023-02-19T16:36:37.901Z,0.40
2023-02-19T16:39:17.665Z,1.50
2023-02-19T16:42:16.193Z,1.23
2023-02-19T16:44:46.842Z,2.10
2023-02-19T16:47:26.230Z,1.40
2023-02-19T16:49:55.636Z,0.70
2023-02-19T16:52:24.115Z,0.53
2023-02-19T16:54:52.569Z,2.27
2023-02-19T16:57:21.678Z,0.57
2023-02-19T16:59:51.570Z,5.37
2023-02-19T17:02:23.666Z,2.27
2023-02-19T17:04:55.143Z,1.00
2023-02-19T17:07:24.030Z,1.00
2023-02-19T17:09:52.556Z,1.23
2023-02-19T17:12:20.990Z,1.27
2023-02-19T17:14:49.399Z,1.13
2023-02-19T17:17:19.204Z,1.00
2023-02-19T17:19:47.627Z,1.37
2023-02-19T17:22:17.385Z,2.60
2023-02-19T17:24:46.500Z,1.70
2023-02-19T17:27:15.340Z,1.37
2023-02-19T17:29:43.768Z,1.83
2023-02-19T17:32:12.315Z,1.87
2023-02-19T17:34:42.387Z,1.17
2023-02-19T17:37:10.934Z,0.90
2023-02-19T17:39:42.559Z,1.90
2023-02-19T17:42:13.134Z,1.57
2023-02-19T17:44:41.709Z,1.60
2023-02-19T17:47:11.895Z,2.50
2023-02-19T17:49:44.028Z,2.90
2023-02-19T17:52:13.654Z,2.10
2023-02-19T17:54:43.004Z,1.87
2023-02-19T17:57:11.479Z,1.60
2023-02-19T17:59:40.129Z,1.70
2023-02-19T18:02:08.854Z,1.53
2023-02-19T18:04:40.160Z,1.33
2023-02-19T18:07:11.023Z,31.60
2023-02-19T18:09:41.143Z,4.87
2023-02-19T18:12:10.091Z,2.27
2023-02-19T18:14:38.593Z,1.37
2023-02-19T18:17:07.354Z,1.90
2023-02-19T18:19:35.937Z,2.80
2023-02-19T18:22:06.509Z,1.30
2023-02-19T18:24:36.908Z,1.07
2023-02-19T18:27:05.422Z,1.17
2023-02-19T18:29:36.266Z,0.57
2023-02-19T18:32:05.506Z,0.70
2023-02-19T18:34:34.195Z,1.07
2023-02-19T18:37:02.942Z,3.50
2023-02-19T18:39:31.698Z,2.73
2023-02-19T18:42:05.220Z,2.33
2023-02-19T18:44:33.829Z,0.63
2023-02-19T18:47:02.460Z,0.90
2023-02-19T18:49:32.348Z,1.70
2023-02-19T18:52:01.956Z,0.67
2023-02-19T18:54:32.813Z,0.53
2023-02-19T18:57:05.319Z,0.60
2023-02-19T18:59:34.028Z,0.77
2023-02-19T19:02:05.018Z,1.93
2023-02-19T19:04:33.583Z,0.70
2023-02-19T19:07:04.209Z,0.80
2023-02-19T19:09:32.827Z,1.80
2023-02-19T19:12:01.924Z,2.20
2023-02-19T19:14:35.060Z,0.80
2023-02-19T19:17:03.796Z,0.77
2023-02-19T19:19:32.475Z,0.77
2023-02-19T19:22:01.058Z,0.60
2023-02-19T19:24:29.546Z,1.23
2023-02-19T19:26:58.052Z,1.23
2023-02-19T19:29:26.667Z,1.13
2023-02-19T19:31:56.769Z,1.03
2023-02-19T19:34:25.339Z,0.63
2023-02-19T19:36:53.822Z,0.57
2023-02-19T19:39:22.255Z,0.90
2023-02-19T19:41:55.168Z,1.97
2023-02-19T19:44:23.917Z,1.17
2023-02-19T19:46:53.926Z,0.63
2023-02-19T19:49:24.431Z,1.13
2023-02-19T19:51:52.918Z,0.77
2023-02-19T19:54:21.485Z,0.60
2023-02-19T19:56:50.926Z,0.60
2023-02-19T19:59:19.551Z,0.30
2023-02-19T20:01:52.601Z,1.60
2023-02-19T20:04:23.665Z,1.63
2023-02-19T20:06:52.408Z,2.30
2023-02-19T20:09:25.230Z,1.67
2023-02-19T20:11:54.612Z,0.70
2023-02-19T20:14:24.637Z,0.60
2023-02-19T20:16:53.417Z,0.53
2023-02-19T20:19:23.885Z,0.90
2023-02-19T20:21:53.817Z,0.83
2023-02-19T20:24:26.050Z,4.70
2023-02-19T20:26:58.432Z,1.90
2023-02-19T20:29:27.903Z,4.53
2023-02-19T20:31:59.071Z,2.20
2023-02-19T20:34:29.430Z,3.23
2023-02-19T20:36:57.891Z,1.40
2023-02-19T20:39:29.178Z,2.43
2023-02-19T20:41:58.925Z,4.57
2023-02-19T20:44:28.450Z,2.60
2023-02-19T20:46:58.194Z,2.23
2023-02-19T20:49:29.788Z,2.20
2023-02-19T20:51:59.796Z,6.17
2023-02-19T20:54:30.105Z,2.33
2023-02-19T20:57:01.051Z,0.87
2023-02-19T20:59:34.767Z,0.80
2023-02-19T21:02:03.518Z,2.87
2023-02-19T21:04:33.724Z,1.50
2023-02-19T21:07:02.203Z,1.40
2023-02-19T21:09:30.688Z,1.23
2023-02-19T21:11:59.985Z,1.40
2023-02-19T21:14:28.515Z,1.40
2023-02-19T21:16:56.968Z,1.53
2023-02-19T21:19:25.584Z,1.27
2023-02-19T21:21:55.481Z,3.37
2023-02-19T21:24:24.063Z,6.10
2023-02-19T21:26:52.683Z,5.50
2023-02-19T21:29:22.319Z,3.23
2023-02-19T21:31:54.474Z,1.80
2023-02-19T21:34:25.547Z,2.00
2023-02-19T21:36:56.293Z,1.20
2023-02-19T21:39:26.179Z,1.10
2023-02-19T21:41:54.981Z,1.13
2023-02-19T21:44:23.430Z,1.40
2023-02-19T21:46:52.130Z,1.57
2023-02-19T21:49:20.606Z,2.00
2023-02-19T21:51:50.266Z,4.73
2023-02-19T21:54:22.306Z,5.57
2023-02-19T21:56:51.685Z,5.93
2023-02-19T21:59:20.835Z,2.87
2023-02-19T22:01:50.551Z,2.10
2023-02-19T22:04:20.732Z,1.60
2023-02-19T22:06:49.223Z,1.57
2023-02-19T22:09:19.406Z,1.50
2023-02-19T22:11:47.801Z,1.90
2023-02-19T22:14:16.592Z,1.73
2023-02-19T22:16:45.108Z,1.50
2023-02-19T22:19:14.129Z,2.27
2023-02-19T22:21:43.994Z,1.80
2023-02-19T22:24:17.549Z,2.20
2023-02-19T22:26:50.561Z,1.50
2023-02-19T22:29:19.456Z,1.60
2023-02-19T22:31:48.037Z,1.53
2023-02-19T22:34:16.618Z,1.73
2023-02-19T22:36:45.484Z,1.50
2023-02-19T22:39:18.463Z,1.50
2023-02-19T22:41:48.593Z,1.80
2023-02-19T22:44:17.301Z,2.00
2023-02-19T22:46:50.281Z,2.00
2023-02-19T22:49:19.266Z,1.70
2023-02-19T22:51:55.788Z,1.93
2023-02-19T22:54:26.931Z,2.23
2023-02-19T22:56:57.174Z,1.80
2023-02-19T22:59:25.545Z,1.77
2023-02-19T23:01:54.230Z,3.07
2023-02-19T23:04:25.307Z,1.90
2023-02-19T23:06:53.872Z,3.03
2023-02-19T23:09:24.363Z,2.77
2023-02-19T23:11:53.168Z,1.90
2023-02-19T23:14:24.353Z,2.37
2023-02-19T23:16:52.864Z,2.37
2023-02-19T23:19:21.368Z,2.53
2023-02-19T23:21:50.164Z,2.20
2023-02-19T23:24:19.172Z,2.30
2023-02-19T23:26:49.007Z,2.10
2023-02-19T23:29:18.363Z,3.43
2023-02-19T23:31:48.515Z,1.90
2023-02-19T23:34:17.540Z,2.27
2023-02-19T23:36:47.315Z,2.17
2023-02-19T23:39:18.617Z,2.50
2023-02-19T23:41:48.206Z,3.43
2023-02-19T23:44:16.929Z,3.47
2023-02-19T23:46:45.445Z,3.67
2023-02-19T23:49:15.301Z,6.00
2023-02-19T23:51:43.702Z,6.03
2023-02-19T23:54:12.336Z,6.13
2023-02-19T23:56:40.917Z,6.17
2023-02-19T23:59:09.413Z,4.87
